createdAt,value
2019-01-23T00:01:56.209Z,92.60
2019-01-23T00:06:01.269Z,92.30
2019-01-23T00:10:06.980Z,92.20
2019-01-23T00:14:12.047Z,92.20
2019-01-23T00:18:17.189Z,92.20
2019-01-23T00:22:22.255Z,92.20
2019-01-23T00:26:27.376Z,92.10
2019-01-23T00:30:32.453Z,92.00
2019-01-23T00:34:37.555Z,92.10
2019-01-23T00:38:42.628Z,92.10
2019-01-23T00:42:47.738Z,92.10
2019-01-23T00:46:52.809Z,92.00
2019-01-23T00:50:57.923Z,91.90
2019-01-23T00:55:03.062Z,92.00
2019-01-23T00:59:08.152Z,92.20
2019-01-23T01:03:13.298Z,92.10
2019-01-23T01:07:18.482Z,92.00
2019-01-23T01:11:23.583Z,92.20
2019-01-23T01:15:28.632Z,92.20
2019-01-23T01:19:33.740Z,92.20
2019-01-23T01:23:38.813Z,92.10
2019-01-23T01:27:43.944Z,92.20
2019-01-23T01:31:49.020Z,92.40
2019-01-23T01:35:54.114Z,92.30
2019-01-23T01:39:59.229Z,92.70
2019-01-23T01:44:04.313Z,92.20
2019-01-23T01:48:09.426Z,92.10
2019-01-23T01:52:14.503Z,92.00
2019-01-23T01:56:19.602Z,92.00
2019-01-23T02:00:24.898Z,92.00
2019-01-23T02:04:30.008Z,92.10
2019-01-23T02:08:35.131Z,92.20
2019-01-23T02:12:40.195Z,92.30
2019-01-23T02:16:45.313Z,92.70
2019-01-23T02:20:50.400Z,92.30
2019-01-23T02:24:55.531Z,92.30
2019-01-23T02:29:00.645Z,92.60
2019-01-23T02:33:05.717Z,92.30
2019-01-23T02:37:10.852Z,92.20
2019-01-23T02:41:15.937Z,91.90
2019-01-23T02:45:21.076Z,92.10
2019-01-23T02:49:26.168Z,92.10
2019-01-23T02:53:31.293Z,92.20
2019-01-23T02:57:36.388Z,92.30
2019-01-23T03:01:41.479Z,92.20
2019-01-23T03:05:46.621Z,92.00
2019-01-23T03:09:51.705Z,92.10
2019-01-23T03:13:56.809Z,92.00
2019-01-23T03:18:01.885Z,91.70
2019-01-23T03:22:07.021Z,91.60
2019-01-23T03:26:12.141Z,91.80
2019-01-23T03:30:19.047Z,91.90
2019-01-23T03:34:24.139Z,91.90
2019-01-23T03:38:29.228Z,92.10
2019-01-23T03:42:34.356Z,92.30
2019-01-23T03:46:39.432Z,92.40
2019-01-23T03:50:44.554Z,92.40
2019-01-23T03:54:49.739Z,92.50
2019-01-23T03:58:54.827Z,92.60
2019-01-23T04:02:59.940Z,92.70
2019-01-23T04:07:05.007Z,92.70
2019-01-23T04:11:10.105Z,92.70
2019-01-23T04:15:16.381Z,92.70
2019-01-23T04:19:21.483Z,92.40
2019-01-23T04:23:26.616Z,92.80
2019-01-23T04:27:31.715Z,92.80
2019-01-23T04:31:36.807Z,93.00
2019-01-23T04:35:41.939Z,93.00
2019-01-23T04:39:47.022Z,93.00
2019-01-23T04:43:52.126Z,93.50
2019-01-23T04:47:57.268Z,93.10
2019-01-23T04:52:03.920Z,93.30
2019-01-23T04:56:09.021Z,93.40
2019-01-23T05:00:15.718Z,93.90
2019-01-23T05:04:20.794Z,93.60
2019-01-23T05:08:25.909Z,93.60
2019-01-23T05:12:30.968Z,93.40
2019-01-23T05:16:36.084Z,93.30
2019-01-23T05:20:41.200Z,93.30
2019-01-23T05:24:46.307Z,93.20
2019-01-23T05:28:51.424Z,93.00
2019-01-23T05:32:56.499Z,93.10
2019-01-23T05:37:01.626Z,93.20
2019-01-23T05:41:06.691Z,93.20
2019-01-23T05:45:13.593Z,93.10
2019-01-23T05:49:18.711Z,93.10
2019-01-23T05:53:23.791Z,93.20
2019-01-23T05:57:28.898Z,93.00
2019-01-23T06:01:33.976Z,92.90
2019-01-23T06:05:39.079Z,93.00
2019-01-23T06:09:44.161Z,92.80
2019-01-23T06:13:49.251Z,92.80
2019-01-23T06:17:54.308Z,92.90
2019-01-23T06:21:59.421Z,92.90
2019-01-23T06:26:04.494Z,92.90
2019-01-23T06:30:15.877Z,93.00
2019-01-23T06:34:21.130Z,93.00
2019-01-23T06:38:26.166Z,93.00
2019-01-23T06:42:31.262Z,93.10
2019-01-23T06:46:36.367Z,93.20
2019-01-23T06:50:41.432Z,93.20
2019-01-23T06:54:46.575Z,93.10
2019-01-23T06:58:51.648Z,93.10
2019-01-23T07:02:56.676Z,93.00
2019-01-23T07:07:01.760Z,93.10
2019-01-23T07:11:06.856Z,93.40
2019-01-23T07:15:16.050Z,93.00
2019-01-23T07:19:21.141Z,92.90
2019-01-23T07:23:26.261Z,92.80
2019-01-23T07:27:31.327Z,93.00
2019-01-23T07:31:36.441Z,93.00
2019-01-23T07:35:41.528Z,93.00
2019-01-23T07:39:46.737Z,92.90
2019-01-23T07:43:51.796Z,92.70
2019-01-23T07:47:56.877Z,92.40
2019-01-23T07:52:01.987Z,92.40
2019-01-23T07:56:07.109Z,92.30
2019-01-23T08:00:21.341Z,92.40
2019-01-23T08:04:26.452Z,92.30
2019-01-23T08:08:31.576Z,92.10
2019-01-23T08:12:36.655Z,92.00
2019-01-23T08:16:41.849Z,91.80
2019-01-23T08:20:46.972Z,91.60
2019-01-23T08:24:52.084Z,91.40
2019-01-23T08:28:57.188Z,91.40
2019-01-23T08:33:02.321Z,91.50
2019-01-23T08:37:07.390Z,91.70
2019-01-23T08:41:12.515Z,90.90
2019-01-23T08:45:23.615Z,91.00
2019-01-23T08:49:29.218Z,90.60
2019-01-23T08:53:35.194Z,90.50
2019-01-23T08:57:40.288Z,90.60
2019-01-23T09:01:45.399Z,90.20
2019-01-23T09:05:50.482Z,90.00
2019-01-23T09:09:55.600Z,88.40
2019-01-23T09:14:00.683Z,88.20
2019-01-23T09:18:07.062Z,87.50
2019-01-23T09:22:12.409Z,87.80
2019-01-23T09:26:17.492Z,87.60
2019-01-23T09:30:37.464Z,87.50
2019-01-23T09:34:48.478Z,85.40
2019-01-23T09:38:59.621Z,81.50
2019-01-23T09:43:10.765Z,82.30
2019-01-23T09:47:31.328Z,81.50
2019-01-23T09:51:59.191Z,81.40
2019-01-23T09:56:04.271Z,81.30
2019-01-23T10:00:21.435Z,82.30
2019-01-23T10:04:26.528Z,82.00
2019-01-23T10:08:31.640Z,79.60
2019-01-23T10:12:36.756Z,79.50
2019-01-23T10:16:41.858Z,78.60
2019-01-23T10:20:46.972Z,77.70
2019-01-23T10:24:52.069Z,76.00
2019-01-23T10:28:57.274Z,73.10
2019-01-23T10:33:02.355Z,72.00
2019-01-23T10:37:07.484Z,73.10
2019-01-23T10:41:12.707Z,71.20
2019-01-23T10:45:17.802Z,66.40
2019-01-23T10:49:23.127Z,67.80
2019-01-23T10:53:28.207Z,68.00
2019-01-23T10:57:33.404Z,68.40
2019-01-23T11:01:38.711Z,70.20
2019-01-23T11:05:43.995Z,70.60
2019-01-23T11:09:49.078Z,73.40
2019-01-23T11:13:54.243Z,75.80
2019-01-23T11:17:59.406Z,75.10
2019-01-23T11:22:04.557Z,76.30
2019-01-23T11:26:09.627Z,77.20
2019-01-23T11:30:25.845Z,78.50
2019-01-23T11:34:30.936Z,78.80
2019-01-23T11:38:36.024Z,79.60
2019-01-23T11:42:41.109Z,80.30
2019-01-23T11:46:46.334Z,80.40
2019-01-23T11:50:51.419Z,81.30
2019-01-23T11:54:56.559Z,82.10
2019-01-23T11:59:01.633Z,81.80
2019-01-23T12:03:06.943Z,82.10
2019-01-23T12:07:12.098Z,82.80
2019-01-23T12:11:17.173Z,82.60
2019-01-23T12:15:24.418Z,83.20
2019-01-23T12:19:29.588Z,83.80
2019-01-23T12:23:34.657Z,83.70
2019-01-23T12:27:39.765Z,83.60
2019-01-23T12:31:44.838Z,83.60
2019-01-23T12:35:50.016Z,83.60
2019-01-23T12:39:56.117Z,84.00
2019-01-23T12:44:01.196Z,84.50
2019-01-23T12:48:06.478Z,84.80
2019-01-23T12:52:11.574Z,85.90
2019-01-23T12:56:16.861Z,84.90
2019-01-23T13:00:24.412Z,84.80
2019-01-23T13:04:29.470Z,84.70
2019-01-23T13:08:34.751Z,84.90
2019-01-23T13:12:39.841Z,85.40
2019-01-23T13:16:45.033Z,85.60
2019-01-23T13:20:50.125Z,86.10
2019-01-23T13:24:55.217Z,86.00
2019-01-23T13:29:00.494Z,85.60
2019-01-23T13:33:05.577Z,85.30
2019-01-23T13:37:10.829Z,85.80
2019-01-23T13:41:15.899Z,86.20
2019-01-23T13:45:21.035Z,86.80
2019-01-23T13:49:26.111Z,87.00
2019-01-23T13:53:31.409Z,86.50
2019-01-23T13:57:36.862Z,86.20
2019-01-23T14:01:42.066Z,86.20
2019-01-23T14:05:47.218Z,86.50
2019-01-23T14:09:52.491Z,86.40
2019-01-23T14:13:57.878Z,86.20
2019-01-23T14:18:02.962Z,86.40
2019-01-23T14:22:08.145Z,86.60
2019-01-23T14:26:13.312Z,86.80
2019-01-23T14:30:24.377Z,86.70
2019-01-23T14:34:29.799Z,86.70
2019-01-23T14:38:36.105Z,86.80
2019-01-23T14:42:41.306Z,86.90
2019-01-23T14:46:46.660Z,88.00
2019-01-23T14:50:51.944Z,86.90
2019-01-23T14:54:57.299Z,86.70
2019-01-23T14:59:02.344Z,86.40
2019-01-23T15:03:07.538Z,86.60
2019-01-23T15:07:12.755Z,86.60
2019-01-23T15:11:18.181Z,86.70
2019-01-23T15:15:23.274Z,86.70
2019-01-23T15:19:29.091Z,86.50
2019-01-23T15:23:34.547Z,86.20
2019-01-23T15:27:39.901Z,86.20
2019-01-23T15:31:45.447Z,86.10
2019-01-23T15:35:52.171Z,85.60
2019-01-23T15:39:58.412Z,85.70
2019-01-23T15:44:03.854Z,85.70
2019-01-23T15:48:10.847Z,85.60
2019-01-23T15:52:16.299Z,85.70
2019-01-23T15:56:22.320Z,85.70
2019-01-23T16:00:30.392Z,85.50
2019-01-23T16:04:35.876Z,85.50
2019-01-23T16:08:41.396Z,85.40
2019-01-23T16:12:48.133Z,85.20
2019-01-23T16:16:53.519Z,85.40
2019-01-23T16:21:00.126Z,85.30
2019-01-23T16:25:08.168Z,85.10
2019-01-23T16:29:13.910Z,84.50
2019-01-23T16:33:20.965Z,84.20
2019-01-23T16:37:26.724Z,84.50
2019-01-23T16:41:32.218Z,84.40
2019-01-23T16:45:41.110Z,84.50
2019-01-23T16:49:48.221Z,84.70
2019-01-23T16:53:55.805Z,84.50
2019-01-23T16:58:01.607Z,84.60
2019-01-23T17:02:07.225Z,84.30
2019-01-23T17:06:12.780Z,84.10
2019-01-23T17:10:21.782Z,84.10
2019-01-23T17:14:27.281Z,84.10
2019-01-23T17:18:33.032Z,84.10
2019-01-23T17:22:38.621Z,83.80
2019-01-23T17:26:45.672Z,83.50
2019-01-23T17:30:52.662Z,83.30
2019-01-23T17:34:59.324Z,82.80
2019-01-23T17:39:08.090Z,83.30
2019-01-23T17:43:14.653Z,83.30
2019-01-23T17:47:21.889Z,83.70
2019-01-23T17:51:28.567Z,83.60
2019-01-23T17:55:36.305Z,83.80
2019-01-23T17:59:44.248Z,83.70
2019-01-23T18:03:50.769Z,83.70
2019-01-23T18:07:56.384Z,83.70
2019-01-23T18:12:01.885Z,84.00
2019-01-23T18:16:07.426Z,83.90
2019-01-23T18:20:16.140Z,83.90
2019-01-23T18:24:22.737Z,84.10
2019-01-23T18:28:28.353Z,84.10
2019-01-23T18:32:34.007Z,84.00
2019-01-23T18:36:48.091Z,84.20
2019-01-23T18:41:19.427Z,85.20
2019-01-23T18:45:28.338Z,84.60
2019-01-23T18:49:42.979Z,84.40
2019-01-23T18:53:49.199Z,84.40
2019-01-23T18:57:54.654Z,84.30
2019-01-23T19:02:00.720Z,84.60
2019-01-23T19:06:08.735Z,85.10
2019-01-23T19:10:18.828Z,85.90
2019-01-23T19:14:24.733Z,83.30
2019-01-23T19:18:31.728Z,83.20
2019-01-23T19:22:39.575Z,83.50
2019-01-23T19:26:45.124Z,83.60
2019-01-23T19:30:50.663Z,83.70
2019-01-23T19:34:56.427Z,83.30
2019-01-23T19:39:02.284Z,83.30
2019-01-23T19:43:07.856Z,83.30
2019-01-23T19:47:13.499Z,83.20
2019-01-23T19:51:21.224Z,83.00
2019-01-23T19:55:29.116Z,83.10
2019-01-23T19:59:34.569Z,82.60
2019-01-23T20:03:41.983Z,82.70
2019-01-23T20:07:48.897Z,82.50
2019-01-23T20:11:54.510Z,82.30
2019-01-23T20:16:00.170Z,82.20
2019-01-23T20:20:09.202Z,82.50
2019-01-23T20:24:14.963Z,82.20
2019-01-23T20:28:20.417Z,82.00
2019-01-23T20:32:25.973Z,81.80
2019-01-23T20:36:31.511Z,81.80
2019-01-23T20:40:37.288Z,81.60
2019-01-23T20:44:42.843Z,81.90
2019-01-23T20:48:48.600Z,81.60
2019-01-23T20:52:54.156Z,81.20
2019-01-23T20:57:00.018Z,81.20
2019-01-23T21:01:06.293Z,81.80
2019-01-23T21:05:12.768Z,81.20
2019-01-23T21:09:20.785Z,81.20
2019-01-23T21:13:28.076Z,81.10
2019-01-23T21:17:35.235Z,81.00
2019-01-23T21:21:43.264Z,80.70
2019-01-23T21:25:49.248Z,81.00
2019-01-23T21:29:54.804Z,80.80
2019-01-23T21:34:00.206Z,80.80
2019-01-23T21:38:05.915Z,80.80
2019-01-23T21:42:11.365Z,80.60
2019-01-23T21:46:17.039Z,79.80
2019-01-23T21:50:25.973Z,79.80
2019-01-23T21:54:31.551Z,80.30
2019-01-23T21:58:36.968Z,80.30
2019-01-23T22:02:42.424Z,80.20
2019-01-23T22:06:47.871Z,80.20
2019-01-23T22:10:53.326Z,80.20
2019-01-23T22:14:58.778Z,79.80
2019-01-23T22:19:04.130Z,80.00
2019-01-23T22:23:09.219Z,79.80
2019-01-23T22:27:14.380Z,79.60
2019-01-23T22:31:19.629Z,80.00
2019-01-23T22:35:24.915Z,79.70
2019-01-23T22:39:30.035Z,79.60
2019-01-23T22:43:35.250Z,79.30
2019-01-23T22:47:40.416Z,79.20
2019-01-23T22:51:46.549Z,79.00
2019-01-23T22:55:51.679Z,78.80
2019-01-23T22:59:56.748Z,79.10
2019-01-23T23:04:03.402Z,78.40
2019-01-23T23:08:08.747Z,78.10
2019-01-23T23:12:13.836Z,78.50
2019-01-23T23:16:18.915Z,78.10
2019-01-23T23:20:25.452Z,78.40
2019-01-23T23:24:30.529Z,77.90
2019-01-23T23:28:35.627Z,78.10
2019-01-23T23:32:40.744Z,77.80
2019-01-23T23:36:45.818Z,77.90
2019-01-23T23:40:50.929Z,77.50
2019-01-23T23:44:55.994Z,77.60
2019-01-23T23:49:01.106Z,77.70
2019-01-23T23:53:06.324Z,77.80
2019-01-23T23:57:11.401Z,77.80
